createdAt,value
2022-10-20T00:01:28.344Z,27.25
2022-10-20T00:03:57.817Z,23.67
2022-10-20T00:06:28.877Z,26.00
2022-10-20T00:08:58.897Z,26.50
2022-10-20T00:11:28.589Z,24.50
2022-10-20T00:13:58.497Z,25.00
2022-10-20T00:16:29.044Z,25.33
2022-10-20T00:18:58.305Z,25.00
2022-10-20T00:21:29.212Z,23.50
2022-10-20T00:24:01.443Z,22.00
2022-10-20T00:26:30.761Z,23.00
2022-10-20T00:28:59.426Z,23.50
2022-10-20T00:31:27.725Z,23.00
2022-10-20T00:33:56.197Z,22.33
2022-10-20T00:36:24.620Z,23.00
2022-10-20T00:38:58.584Z,21.00
2022-10-20T00:41:27.869Z,23.00
2022-10-20T00:44:40.737Z,24.25
2022-10-20T00:47:39.901Z,21.25
2022-10-20T00:50:15.967Z,22.25
2022-10-20T00:52:45.387Z,21.25
2022-10-20T00:55:18.005Z,24.00
2022-10-20T00:57:50.529Z,21.50
2022-10-20T01:00:19.339Z,22.00
2022-10-20T01:02:47.779Z,23.33
2022-10-20T01:05:16.240Z,23.00
2022-10-20T01:07:44.561Z,20.25
2022-10-20T01:10:13.860Z,21.50
2022-10-20T01:12:56.548Z,22.00
2022-10-20T01:16:00.278Z,21.00
2022-10-20T01:19:03.623Z,21.25
2022-10-20T01:21:44.213Z,20.00
2022-10-20T01:24:51.243Z,19.00
2022-10-20T01:27:32.216Z,20.00
2022-10-20T01:30:06.024Z,19.00
2022-10-20T01:32:40.273Z,20.25
2022-10-20T01:35:24.214Z,20.00
2022-10-20T01:38:08.624Z,19.25
2022-10-20T01:40:38.264Z,20.00
2022-10-20T01:43:09.716Z,21.00
2022-10-20T01:45:41.576Z,21.00
2022-10-20T01:48:12.494Z,21.00
2022-10-20T01:50:41.770Z,19.00
2022-10-20T01:53:11.047Z,19.00
2022-10-20T01:55:39.684Z,20.75
2022-10-20T01:58:48.777Z,20.25
2022-10-20T02:01:36.450Z,19.50
2022-10-20T02:04:06.436Z,20.00
2022-10-20T02:07:18.178Z,20.00
2022-10-20T02:09:50.169Z,19.00
2022-10-20T02:12:30.194Z,20.00
2022-10-20T02:15:00.435Z,18.67
2022-10-20T02:17:29.494Z,20.25
2022-10-20T02:19:58.967Z,22.00
2022-10-20T02:22:28.163Z,19.50
2022-10-20T02:24:56.656Z,19.25
2022-10-20T02:27:33.655Z,21.00
2022-10-20T02:30:09.738Z,19.00
2022-10-20T02:32:40.182Z,20.00
2022-10-20T02:35:17.797Z,19.25
2022-10-20T02:37:46.027Z,21.00
2022-10-20T02:40:14.797Z,18.00
2022-10-20T02:42:44.291Z,18.50
2022-10-20T02:45:12.894Z,18.00
2022-10-20T02:47:41.223Z,18.00
2022-10-20T02:50:10.070Z,17.33
2022-10-20T02:52:38.957Z,17.00
2022-10-20T02:55:07.954Z,19.50
2022-10-20T02:57:36.373Z,18.00
2022-10-20T03:00:07.367Z,18.50
2022-10-20T03:02:35.679Z,18.00
2022-10-20T03:05:04.327Z,19.25
2022-10-20T03:07:32.816Z,18.25
2022-10-20T03:10:01.600Z,19.50
2022-10-20T03:12:31.533Z,20.25
2022-10-20T03:15:01.006Z,18.33
2022-10-20T03:17:29.222Z,20.00
2022-10-20T03:19:57.760Z,19.00
2022-10-20T03:22:26.088Z,19.75
2022-10-20T03:24:54.686Z,19.67
2022-10-20T03:27:23.034Z,19.00
2022-10-20T03:29:51.754Z,18.50
2022-10-20T03:32:20.034Z,18.75
2022-10-20T03:34:48.456Z,18.50
2022-10-20T03:37:16.715Z,19.00
2022-10-20T03:39:45.185Z,18.25
2022-10-20T03:42:14.586Z,19.00
2022-10-20T03:44:45.473Z,19.00
2022-10-20T03:47:14.315Z,19.50
2022-10-20T03:49:42.807Z,19.50
2022-10-20T03:52:11.073Z,20.50
2022-10-20T03:54:41.300Z,19.00
2022-10-20T03:57:09.570Z,20.33
2022-10-20T03:59:38.109Z,20.00
2022-10-20T04:02:06.456Z,21.00
2022-10-20T04:04:34.974Z,20.33
2022-10-20T04:07:03.223Z,20.25
2022-10-20T04:09:31.688Z,19.00
2022-10-20T04:11:59.985Z,20.25
2022-10-20T04:14:28.621Z,20.25
2022-10-20T04:16:56.885Z,20.00
2022-10-20T04:19:25.407Z,19.25
2022-10-20T04:21:53.633Z,19.33
2022-10-20T04:24:22.154Z,20.00
2022-10-20T04:29:24.173Z,19.50
2022-10-20T04:31:52.383Z,20.00
2022-10-20T04:34:20.942Z,20.00
2022-10-20T04:36:49.243Z,20.00
2022-10-20T04:39:18.224Z,18.00
2022-10-20T04:41:46.537Z,19.25
2022-10-20T04:44:16.366Z,20.00
2022-10-20T04:46:44.744Z,19.00
2022-10-20T04:49:13.392Z,18.00
2022-10-20T04:51:41.775Z,20.00
2022-10-20T04:54:11.053Z,19.50
2022-10-20T04:56:39.551Z,18.50
2022-10-20T04:59:11.002Z,21.00
2022-10-20T05:01:42.002Z,19.50
2022-10-20T05:04:11.759Z,21.00
2022-10-20T05:06:40.114Z,20.50
2022-10-20T05:09:08.702Z,21.00
2022-10-20T05:11:37.535Z,21.50
2022-10-20T05:14:06.455Z,18.75
2022-10-20T05:16:35.165Z,20.25
2022-10-20T05:19:04.015Z,20.33
2022-10-20T05:21:32.295Z,20.00
2022-10-20T05:24:05.564Z,21.00
2022-10-20T05:26:37.330Z,20.00
2022-10-20T05:29:07.732Z,20.00
2022-10-20T05:31:41.066Z,21.00
2022-10-20T05:34:10.602Z,20.00
2022-10-20T05:36:39.284Z,19.00
2022-10-20T05:39:07.756Z,20.25
2022-10-20T05:41:38.914Z,20.00
2022-10-20T05:44:09.279Z,20.00
2022-10-20T05:46:41.938Z,21.00
2022-10-20T05:49:14.547Z,22.00
2022-10-20T05:51:43.550Z,21.00
2022-10-20T05:54:13.494Z,20.25
2022-10-20T05:56:41.798Z,21.25
2022-10-20T05:59:13.160Z,21.00
2022-10-20T06:01:50.586Z,20.00
2022-10-20T06:04:24.791Z,21.25
2022-10-20T06:06:54.768Z,22.00
2022-10-20T06:09:24.725Z,22.00
2022-10-20T06:11:53.424Z,20.00
2022-10-20T06:14:22.752Z,22.25
2022-10-20T06:16:52.640Z,21.25
2022-10-20T06:19:21.481Z,20.67
2022-10-20T06:21:50.658Z,22.50
2022-10-20T06:24:19.905Z,20.00
2022-10-20T06:26:48.148Z,22.00
2022-10-20T06:29:18.267Z,20.00
2022-10-20T06:31:51.766Z,20.25
2022-10-20T06:34:22.923Z,22.00
2022-10-20T06:36:52.765Z,23.00
2022-10-20T06:39:23.871Z,23.00
2022-10-20T06:41:57.740Z,22.67
2022-10-20T06:44:31.643Z,21.50
2022-10-20T06:47:00.016Z,22.00
2022-10-20T06:49:28.450Z,21.00
2022-10-20T06:51:56.689Z,21.00
2022-10-20T06:54:25.072Z,23.25
2022-10-20T06:56:53.275Z,21.50
2022-10-20T06:59:22.094Z,23.50
2022-10-20T07:01:50.361Z,24.00
2022-10-20T07:04:19.051Z,24.25
2022-10-20T07:06:48.156Z,23.00
2022-10-20T07:09:19.399Z,22.50
2022-10-20T07:11:51.825Z,24.25
2022-10-20T07:14:20.586Z,22.50
2022-10-20T07:16:48.758Z,25.25
2022-10-20T07:19:17.255Z,23.25
2022-10-20T07:21:46.090Z,25.25
2022-10-20T07:24:17.094Z,25.25
2022-10-20T07:26:45.368Z,25.25
2022-10-20T07:29:14.921Z,24.00
2022-10-20T07:31:46.332Z,24.50
2022-10-20T07:34:26.291Z,25.00
2022-10-20T07:36:56.477Z,25.25
2022-10-20T07:39:25.497Z,24.25
2022-10-20T07:41:53.779Z,22.25
2022-10-20T07:44:22.557Z,23.25
2022-10-20T07:46:50.884Z,23.00
2022-10-20T07:52:07.896Z,23.00
2022-10-20T07:54:36.475Z,23.00
2022-10-20T07:57:04.724Z,22.25
2022-10-20T07:59:33.253Z,21.25
2022-10-20T08:02:01.541Z,20.25
2022-10-20T08:04:31.937Z,20.25
2022-10-20T08:07:01.097Z,20.00
2022-10-20T08:09:29.574Z,19.00
2022-10-20T08:11:57.807Z,19.50
2022-10-20T08:14:32.155Z,20.00
2022-10-20T08:17:01.439Z,20.00
2022-10-20T08:19:33.103Z,19.50
2022-10-20T08:22:01.353Z,20.00
2022-10-20T08:24:29.734Z,19.00
2022-10-20T08:26:57.935Z,19.25
2022-10-20T08:29:26.373Z,20.25
2022-10-20T08:31:54.653Z,19.00
2022-10-20T08:34:23.124Z,19.00
2022-10-20T08:36:51.494Z,18.00
2022-10-20T08:39:20.075Z,17.50
2022-10-20T08:44:41.740Z,18.00
2022-10-20T08:47:33.493Z,18.25
2022-10-20T08:50:05.504Z,21.33
2022-10-20T08:52:34.300Z,18.00
2022-10-20T08:55:05.459Z,17.00
2022-10-20T08:57:36.529Z,18.00
2022-10-20T09:00:18.936Z,17.50
2022-10-20T09:02:49.223Z,17.25
2022-10-20T09:05:26.692Z,19.00
2022-10-20T09:07:55.314Z,17.25
2022-10-20T09:10:29.866Z,18.33
2022-10-20T09:12:58.965Z,17.00
2022-10-20T09:15:28.927Z,19.00
2022-10-20T09:18:04.133Z,17.25
2022-10-20T09:20:49.553Z,17.50
2022-10-20T09:23:40.040Z,17.25
2022-10-20T09:26:30.732Z,17.00
2022-10-20T09:29:20.241Z,20.00
2022-10-20T09:31:54.006Z,17.00
2022-10-20T09:34:28.346Z,17.00
2022-10-20T09:37:02.633Z,19.25
2022-10-20T09:39:39.425Z,19.00
2022-10-20T09:42:15.494Z,18.25
2022-10-20T09:44:52.434Z,18.00
2022-10-20T09:47:23.254Z,18.00
2022-10-20T09:50:00.960Z,18.75
2022-10-20T09:52:35.016Z,17.00
2022-10-20T09:55:08.644Z,18.25
2022-10-20T09:57:37.202Z,19.00
2022-10-20T10:00:19.156Z,18.67
2022-10-20T10:03:21.312Z,18.67
2022-10-20T10:05:51.245Z,18.00
2022-10-20T10:08:21.947Z,18.00
2022-10-20T10:11:03.708Z,20.00
2022-10-20T10:13:40.236Z,20.00
2022-10-20T10:16:10.725Z,18.25
2022-10-20T10:18:39.429Z,19.00
2022-10-20T10:21:10.706Z,18.00
2022-10-20T10:24:00.744Z,18.00
2022-10-20T10:26:40.095Z,17.00
2022-10-20T10:29:46.514Z,17.00
2022-10-20T10:32:17.548Z,18.25
2022-10-20T10:35:18.149Z,17.33
2022-10-20T10:38:05.026Z,17.25
2022-10-20T10:40:43.835Z,19.00
2022-10-20T10:43:25.326Z,18.50
2022-10-20T10:46:08.387Z,19.00
2022-10-20T10:48:57.948Z,18.00
2022-10-20T10:51:34.915Z,17.50
2022-10-20T10:54:33.946Z,17.00
2022-10-20T10:57:20.956Z,19.25
2022-10-20T10:59:50.276Z,18.25
2022-10-20T11:02:43.685Z,19.00
2022-10-20T11:05:47.198Z,18.33
2022-10-20T11:08:27.732Z,19.00
2022-10-20T11:11:19.364Z,18.25
2022-10-20T11:14:06.121Z,17.33
2022-10-20T11:16:42.189Z,18.25
2022-10-20T11:19:39.205Z,19.00
2022-10-20T11:22:25.925Z,17.00
2022-10-20T11:25:12.405Z,18.25
2022-10-20T11:27:40.827Z,18.00
2022-10-20T11:30:19.864Z,17.00
2022-10-20T11:33:17.504Z,18.00
2022-10-20T11:35:57.518Z,17.00
2022-10-20T11:38:37.856Z,16.00
2022-10-20T11:41:31.655Z,18.25
2022-10-20T11:44:05.508Z,17.00
2022-10-20T11:46:37.842Z,16.00
2022-10-20T11:49:08.006Z,17.25
2022-10-20T11:52:10.952Z,16.00
2022-10-20T11:55:03.032Z,18.25
2022-10-20T11:58:01.146Z,15.50
2022-10-20T12:00:47.764Z,18.25
2022-10-20T12:03:53.372Z,16.25
2022-10-20T12:06:28.040Z,17.00
2022-10-20T12:09:06.386Z,17.33
2022-10-20T12:11:50.418Z,17.00
2022-10-20T12:14:34.333Z,17.33
2022-10-20T12:17:13.694Z,18.25
2022-10-20T12:19:42.254Z,17.25
2022-10-20T12:22:19.914Z,17.00
2022-10-20T12:24:54.036Z,17.25
2022-10-20T12:27:28.104Z,19.25
2022-10-20T12:30:38.027Z,18.00
2022-10-20T12:33:20.286Z,16.00
2022-10-20T12:36:11.877Z,17.00
2022-10-20T12:38:41.734Z,17.00
2022-10-20T12:41:19.474Z,17.00
2022-10-20T12:43:47.723Z,17.00
2022-10-20T12:46:21.526Z,16.25
2022-10-20T12:48:57.200Z,16.00
2022-10-20T12:51:41.334Z,16.25
2022-10-20T12:54:39.631Z,16.00
2022-10-20T12:57:44.478Z,17.00
2022-10-20T13:00:24.373Z,17.25
2022-10-20T13:03:48.777Z,17.00
2022-10-20T13:06:23.887Z,16.25
2022-10-20T13:09:05.200Z,16.00
2022-10-20T13:11:44.855Z,16.50
2022-10-20T13:14:13.272Z,16.00
2022-10-20T13:17:01.521Z,16.00
2022-10-20T13:20:00.447Z,16.00
2022-10-20T13:22:50.498Z,15.75
2022-10-20T13:25:34.507Z,15.00
2022-10-20T13:28:29.286Z,15.25
2022-10-20T13:31:09.792Z,16.25
2022-10-20T13:34:05.628Z,16.25
2022-10-20T13:36:41.196Z,16.00
2022-10-20T13:39:34.231Z,14.00
2022-10-20T13:42:29.019Z,16.00
2022-10-20T13:45:32.722Z,16.00
2022-10-20T13:48:28.297Z,15.25
2022-10-20T13:51:00.228Z,14.00
2022-10-20T13:53:34.600Z,15.00
2022-10-20T13:56:07.215Z,15.25
2022-10-20T13:58:35.807Z,15.00
2022-10-20T14:01:24.406Z,16.00
2022-10-20T14:03:54.109Z,16.00
2022-10-20T14:06:31.840Z,15.00
2022-10-20T14:09:12.718Z,16.00
2022-10-20T14:11:41.815Z,15.00
2022-10-20T14:14:14.731Z,15.00
2022-10-20T14:16:53.297Z,16.00
2022-10-20T14:19:23.918Z,15.25
2022-10-20T14:21:54.688Z,14.25
2022-10-20T14:24:31.695Z,15.25
2022-10-20T14:27:02.127Z,15.00
2022-10-20T14:32:40.804Z,14.00
2022-10-20T14:35:49.905Z,14.25
2022-10-20T14:38:23.079Z,15.25
2022-10-20T14:40:57.511Z,15.25
2022-10-20T14:43:41.933Z,15.00
2022-10-20T14:46:13.255Z,16.00
2022-10-20T14:48:46.945Z,15.00
2022-10-20T14:51:53.933Z,14.00
2022-10-20T14:54:40.064Z,15.33
2022-10-20T14:57:08.569Z,15.25
2022-10-20T14:59:49.855Z,15.75
2022-10-20T15:02:21.701Z,16.00
2022-10-20T15:04:52.433Z,14.00
2022-10-20T15:07:34.412Z,16.00
2022-10-20T15:10:24.763Z,14.00
2022-10-20T15:12:55.960Z,15.00
2022-10-20T15:15:38.053Z,16.25
2022-10-20T15:18:06.645Z,15.67
2022-10-20T15:20:39.004Z,14.50
2022-10-20T15:23:36.816Z,15.00
2022-10-20T15:26:07.252Z,14.33
2022-10-20T15:28:37.867Z,14.00
2022-10-20T15:31:27.316Z,15.00
2022-10-20T15:33:57.420Z,15.25
2022-10-20T15:36:33.749Z,16.00
2022-10-20T15:39:03.367Z,14.25
2022-10-20T15:41:33.961Z,15.00
2022-10-20T15:44:19.704Z,15.00
2022-10-20T15:46:49.178Z,14.00
2022-10-20T15:49:17.685Z,14.50
2022-10-20T15:51:47.186Z,15.00
2022-10-20T15:54:18.432Z,16.00
2022-10-20T15:56:46.883Z,14.00
2022-10-20T15:59:15.347Z,15.00
2022-10-20T16:01:43.582Z,15.50
2022-10-20T16:04:23.758Z,15.25
2022-10-20T16:06:58.864Z,15.00
2022-10-20T16:09:30.644Z,15.00
2022-10-20T16:11:58.909Z,14.50
2022-10-20T16:14:27.583Z,14.33
2022-10-20T16:16:58.405Z,14.25
2022-10-20T16:19:26.954Z,16.25
2022-10-20T16:21:55.203Z,15.00
2022-10-20T16:24:23.700Z,14.00
2022-10-20T16:26:52.911Z,14.25
2022-10-20T16:29:21.498Z,14.00
2022-10-20T16:31:49.719Z,14.50
2022-10-20T16:34:18.237Z,16.00
2022-10-20T16:36:46.613Z,15.33
2022-10-20T16:39:17.647Z,16.00
2022-10-20T16:41:47.127Z,15.25
2022-10-20T16:44:15.629Z,15.00
2022-10-20T16:46:43.816Z,16.25
2022-10-20T16:49:12.250Z,15.00
2022-10-20T16:51:40.626Z,15.00
2022-10-20T16:54:09.054Z,15.00
2022-10-20T16:56:37.321Z,15.00
2022-10-20T16:59:05.739Z,15.25
2022-10-20T17:01:34.097Z,16.25
2022-10-20T17:04:02.728Z,16.25
2022-10-20T17:06:31.101Z,15.33
2022-10-20T17:09:00.083Z,15.50
2022-10-20T17:11:30.945Z,15.00
2022-10-20T17:13:59.997Z,15.00
2022-10-20T17:16:33.689Z,16.25
2022-10-20T17:19:03.187Z,15.25
2022-10-20T17:21:32.884Z,16.00
2022-10-20T17:24:02.035Z,15.00
2022-10-20T17:26:31.606Z,15.00
2022-10-20T17:29:01.247Z,16.50
2022-10-20T17:31:30.533Z,16.00
2022-10-20T17:33:59.523Z,14.00
2022-10-20T17:36:29.616Z,15.00
2022-10-20T17:39:00.812Z,17.00
2022-10-20T17:41:29.255Z,17.00
2022-10-20T17:44:00.768Z,16.33
2022-10-20T17:46:29.302Z,17.25
2022-10-20T17:48:57.626Z,15.00
2022-10-20T17:51:29.010Z,15.25
2022-10-20T17:54:00.734Z,15.00
2022-10-20T17:56:32.123Z,16.25
2022-10-20T17:59:03.273Z,16.75
2022-10-20T18:01:34.429Z,16.00
2022-10-20T18:04:06.431Z,15.00
2022-10-20T18:06:36.030Z,15.25
2022-10-20T18:09:07.924Z,16.00
2022-10-20T18:11:36.152Z,16.00
2022-10-20T18:14:05.700Z,15.00
2022-10-20T18:16:37.066Z,16.00
2022-10-20T18:19:09.348Z,16.00
2022-10-20T18:21:37.887Z,16.00
2022-10-20T18:24:08.764Z,17.00
2022-10-20T18:26:38.207Z,16.00
2022-10-20T18:29:08.567Z,16.00
2022-10-20T18:31:38.667Z,16.00
2022-10-20T18:34:09.898Z,16.25
2022-10-20T18:36:41.860Z,17.00
2022-10-20T18:39:14.603Z,17.00
2022-10-20T18:41:43.969Z,17.00
2022-10-20T18:44:14.491Z,15.25
2022-10-20T18:46:43.378Z,16.33
2022-10-20T18:49:13.773Z,16.00
2022-10-20T18:51:42.773Z,17.00
2022-10-20T18:54:11.671Z,17.75
2022-10-20T18:56:39.728Z,17.50
2022-10-20T18:59:09.771Z,17.00
2022-10-20T19:01:40.113Z,16.00
2022-10-20T19:04:10.586Z,16.50
2022-10-20T19:06:47.231Z,15.50
2022-10-20T19:09:19.401Z,16.00
2022-10-20T19:14:21.780Z,17.25
2022-10-20T19:16:50.629Z,17.25
2022-10-20T19:19:18.997Z,16.00
2022-10-20T19:21:47.093Z,15.00
2022-10-20T19:24:21.106Z,17.00
2022-10-20T19:27:25.117Z,18.25
2022-10-20T19:29:43.553Z,17.00
2022-10-20T19:32:12.320Z,17.25
2022-10-20T19:34:42.041Z,19.50
2022-10-20T19:37:10.937Z,20.00
2022-10-20T19:39:42.151Z,21.00
2022-10-20T19:42:11.936Z,21.67
2022-10-20T19:44:40.211Z,21.00
2022-10-20T19:47:09.090Z,21.50
2022-10-20T19:49:38.336Z,19.50
2022-10-20T19:52:07.251Z,21.00
2022-10-20T19:54:36.024Z,20.00
2022-10-20T19:57:05.137Z,22.50
2022-10-20T19:59:52.848Z,22.00
2022-10-20T20:02:21.242Z,21.00
2022-10-20T20:04:51.232Z,21.25
2022-10-20T20:07:19.885Z,20.00
2022-10-20T20:09:51.580Z,20.00
2022-10-20T20:12:20.717Z,21.00
2022-10-20T20:14:49.647Z,18.00
2022-10-20T20:17:18.529Z,17.00
2022-10-20T20:19:47.476Z,18.50
2022-10-20T20:22:16.267Z,19.00
2022-10-20T20:24:44.731Z,18.75
2022-10-20T20:27:12.987Z,19.00
2022-10-20T20:29:41.377Z,18.00
2022-10-20T20:32:09.808Z,18.00
2022-10-20T20:34:38.337Z,18.50
2022-10-20T20:37:06.567Z,19.00
2022-10-20T20:39:35.108Z,18.25
2022-10-20T20:42:03.388Z,19.25
2022-10-20T20:44:31.858Z,18.25
2022-10-20T20:47:00.078Z,20.00
2022-10-20T20:49:28.566Z,18.33
2022-10-20T20:51:56.761Z,18.25
2022-10-20T20:54:27.266Z,18.00
2022-10-20T20:56:57.997Z,18.00
2022-10-20T20:59:28.355Z,17.00
2022-10-20T23:43:49.567Z,16.00
